createdAt,value
2023-02-19T00:01:31.928Z,1.45
2023-02-19T00:04:11.761Z,1.20
2023-02-19T00:06:38.635Z,1.20
2023-02-19T00:09:05.815Z,1.30
2023-02-19T00:11:35.208Z,1.20
2023-02-19T00:14:03.529Z,1.20
2023-02-19T00:16:39.574Z,1.33
2023-02-19T00:19:12.692Z,1.15
2023-02-19T00:21:39.441Z,1.17
2023-02-19T00:24:07.848Z,1.30
2023-02-19T00:26:34.798Z,1.17
2023-02-19T00:29:02.155Z,1.20
2023-02-19T00:31:33.439Z,1.30
2023-02-19T00:34:06.133Z,1.15
2023-02-19T00:36:37.461Z,1.10
2023-02-19T00:39:06.656Z,1.40
2023-02-19T00:41:33.595Z,1.17
2023-02-19T00:44:07.013Z,1.30
2023-02-19T00:46:37.178Z,1.17
2023-02-19T00:49:06.762Z,1.25
2023-02-19T00:51:37.694Z,1.20
2023-02-19T00:54:05.602Z,1.05
2023-02-19T00:56:32.874Z,1.00
2023-02-19T00:59:00.043Z,1.20
2023-02-19T01:01:27.010Z,1.10
2023-02-19T01:03:53.894Z,1.00
2023-02-19T01:06:21.561Z,1.00
2023-02-19T01:08:48.855Z,1.00
2023-02-19T01:11:17.116Z,1.00
2023-02-19T01:13:44.310Z,1.10
2023-02-19T01:16:21.129Z,1.15
2023-02-19T01:18:48.762Z,1.00
2023-02-19T01:21:21.813Z,0.90
2023-02-19T01:23:50.633Z,0.80
2023-02-19T01:26:26.600Z,0.90
2023-02-19T01:28:53.379Z,0.90
2023-02-19T01:31:23.560Z,1.00
2023-02-19T01:33:54.787Z,0.90
2023-02-19T01:36:22.124Z,0.90
2023-02-19T01:38:49.734Z,0.80
2023-02-19T01:41:21.554Z,0.90
2023-02-19T01:44:07.918Z,0.82
2023-02-19T01:46:51.348Z,0.77
2023-02-19T01:49:25.909Z,0.75
2023-02-19T01:52:00.413Z,0.80
2023-02-19T01:54:32.456Z,0.70
2023-02-19T01:57:02.717Z,0.60
2023-02-19T01:59:29.484Z,0.80
2023-02-19T02:01:56.458Z,0.80
2023-02-19T02:04:23.596Z,0.70
2023-02-19T02:06:56.012Z,0.98
2023-02-19T02:09:46.628Z,0.75
2023-02-19T02:12:13.836Z,0.70
2023-02-19T02:14:44.444Z,0.63
2023-02-19T02:17:21.110Z,0.70
2023-02-19T02:20:32.363Z,0.80
2023-02-19T02:23:37.812Z,0.73
2023-02-19T02:26:40.244Z,0.60
2023-02-19T02:29:37.141Z,0.65
2023-02-19T02:32:19.579Z,0.60
2023-02-19T02:34:54.095Z,0.60
2023-02-19T02:37:21.416Z,0.50
2023-02-19T02:39:49.620Z,0.57
2023-02-19T02:42:28.827Z,0.43
2023-02-19T02:45:34.989Z,0.60
2023-02-19T02:48:21.123Z,0.50
2023-02-19T02:50:55.453Z,0.50
2023-02-19T02:53:57.378Z,0.50
2023-02-19T02:56:26.544Z,0.47
2023-02-19T02:58:55.360Z,0.40
2023-02-19T03:01:45.508Z,0.20
2023-02-19T03:05:05.502Z,0.40
2023-02-19T03:10:36.366Z,0.20
2023-02-19T03:13:34.367Z,0.40
2023-02-19T03:16:31.479Z,0.32
2023-02-19T03:19:18.411Z,0.32
2023-02-19T03:21:54.579Z,0.15
2023-02-19T03:24:47.146Z,0.32
2023-02-19T03:27:17.060Z,0.30
2023-02-19T03:29:50.256Z,0.20
2023-02-19T03:32:48.283Z,0.20
2023-02-19T03:35:27.829Z,0.20
2023-02-19T03:38:26.843Z,0.20
2023-02-19T03:41:14.389Z,0.15
2023-02-19T03:43:57.910Z,0.10
2023-02-19T03:46:54.949Z,0.20
2023-02-19T03:49:48.884Z,0.20
2023-02-19T03:52:38.477Z,0.10
2023-02-19T03:55:18.205Z,0.10
2023-02-19T04:00:41.096Z,0.20
2023-02-19T04:03:52.111Z,0.10
2023-02-19T04:06:27.777Z,0.10
2023-02-19T04:08:59.550Z,0.20
2023-02-19T04:11:28.993Z,0.13
2023-02-19T04:14:09.627Z,0.13
2023-02-19T04:16:42.432Z,0.17
2023-02-19T04:19:14.107Z,0.20
2023-02-19T04:21:42.172Z,0.20
2023-02-19T04:24:15.264Z,0.22
2023-02-19T04:26:43.151Z,0.10
2023-02-19T04:29:09.973Z,0.20
2023-02-19T04:31:37.873Z,0.20
2023-02-19T04:34:05.185Z,0.20
2023-02-19T04:36:33.103Z,0.20
2023-02-19T04:39:00.006Z,0.20
2023-02-19T04:41:26.852Z,0.10
2023-02-19T04:43:53.703Z,0.10
2023-02-19T04:46:20.525Z,0.20
2023-02-19T04:48:47.378Z,0.10
2023-02-19T04:51:14.578Z,0.20
2023-02-19T04:53:42.631Z,0.13
2023-02-19T04:56:13.859Z,0.10
2023-02-19T04:58:42.291Z,0.10
2023-02-19T05:01:10.344Z,0.10
2023-02-19T05:03:38.064Z,0.20
2023-02-19T05:06:08.035Z,0.13
2023-02-19T05:11:04.482Z,0.10
2023-02-19T05:13:31.949Z,0.10
2023-02-19T05:16:01.853Z,0.10
2023-02-19T05:20:57.248Z,0.10
2023-02-19T05:23:24.355Z,0.10
2023-02-19T05:25:51.195Z,0.10
2023-02-19T05:28:18.271Z,0.20
2023-02-19T05:30:51.070Z,0.10
2023-02-19T05:33:20.939Z,0.10
2023-02-19T05:35:50.770Z,0.10
2023-02-19T05:38:18.802Z,0.10
2023-02-19T05:40:46.320Z,0.10
2023-02-19T05:43:14.232Z,0.00
2023-02-19T05:45:41.381Z,0.10
2023-02-19T05:48:09.372Z,0.10
2023-02-19T05:50:39.632Z,0.10
2023-02-19T05:53:12.608Z,0.20
2023-02-19T05:55:39.424Z,0.10
2023-02-19T05:58:06.237Z,0.10
2023-02-19T06:00:33.894Z,0.20
2023-02-19T06:03:01.598Z,0.20
2023-02-19T06:05:28.589Z,0.30
2023-02-19T06:07:55.489Z,0.40
2023-02-19T06:10:22.335Z,0.20
2023-02-19T06:12:53.393Z,0.30
2023-02-19T06:15:21.511Z,0.40
2023-02-19T06:17:48.819Z,0.40
2023-02-19T06:20:15.909Z,0.50
2023-02-19T06:22:42.685Z,0.40
2023-02-19T06:25:12.519Z,0.40
2023-02-19T06:27:39.838Z,0.50
2023-02-19T06:30:07.587Z,0.40
2023-02-19T06:32:34.386Z,0.50
2023-02-19T06:35:01.175Z,0.60
2023-02-19T06:37:29.261Z,0.50
2023-02-19T06:39:56.194Z,0.60
2023-02-19T06:42:23.077Z,0.70
2023-02-19T06:44:49.923Z,0.60
2023-02-19T06:47:16.739Z,0.60
2023-02-19T06:49:43.799Z,0.50
2023-02-19T06:52:10.658Z,0.50
2023-02-19T06:54:37.414Z,0.60
2023-02-19T06:57:04.323Z,0.50
2023-02-19T06:59:31.201Z,0.60
2023-02-19T07:01:58.039Z,0.70
2023-02-19T07:04:24.876Z,0.80
2023-02-19T07:06:51.711Z,0.75
2023-02-19T07:09:18.481Z,0.70
2023-02-19T07:11:45.274Z,0.63
2023-02-19T07:14:16.289Z,0.70
2023-02-19T07:16:44.037Z,0.75
2023-02-19T07:19:12.014Z,0.80
2023-02-19T07:21:38.816Z,0.90
2023-02-19T07:24:05.965Z,1.00
2023-02-19T07:26:33.083Z,0.90
2023-02-19T07:29:00.416Z,1.20
2023-02-19T07:31:27.890Z,1.23
2023-02-19T07:33:55.418Z,0.80
2023-02-19T07:36:23.946Z,0.80
2023-02-19T07:38:59.068Z,0.93
2023-02-19T07:41:27.406Z,0.77
2023-02-19T07:43:57.473Z,0.70
2023-02-19T07:46:24.430Z,0.73
2023-02-19T07:48:51.195Z,0.70
2023-02-19T07:51:20.013Z,0.60
2023-02-19T07:53:50.221Z,0.80
2023-02-19T07:56:17.930Z,0.90
2023-02-19T07:58:46.186Z,0.77
2023-02-19T08:01:40.929Z,0.80
2023-02-19T08:04:07.897Z,0.60
2023-02-19T08:06:34.726Z,0.50
2023-02-19T08:09:01.515Z,0.43
2023-02-19T08:11:46.637Z,1.27
2023-02-19T08:14:13.402Z,0.43
2023-02-19T08:16:43.330Z,0.50
2023-02-19T08:19:10.414Z,0.40
2023-02-19T08:21:37.229Z,0.32
2023-02-19T08:24:04.343Z,0.50
2023-02-19T08:26:31.167Z,0.30
2023-02-19T08:29:00.288Z,0.52
2023-02-19T08:31:27.727Z,0.50
2023-02-19T08:33:54.629Z,0.50
2023-02-19T08:36:21.443Z,0.75
2023-02-19T08:38:48.422Z,0.60
2023-02-19T08:41:15.885Z,0.70
2023-02-19T08:43:43.665Z,0.70
2023-02-19T08:46:12.007Z,1.00
2023-02-19T08:48:40.244Z,0.95
2023-02-19T08:51:10.852Z,0.70
2023-02-19T08:53:40.361Z,0.90
2023-02-19T08:56:10.891Z,1.03
2023-02-19T08:58:38.047Z,1.23
2023-02-19T09:01:17.712Z,0.80
2023-02-19T09:03:44.922Z,1.00
2023-02-19T09:06:18.681Z,0.82
2023-02-19T09:08:45.626Z,0.82
2023-02-19T09:11:12.929Z,1.05
2023-02-19T09:13:40.117Z,0.90
2023-02-19T09:16:07.088Z,1.10
2023-02-19T09:18:34.009Z,0.98
2023-02-19T09:21:02.821Z,1.00
2023-02-19T09:23:30.132Z,1.40
2023-02-19T09:25:59.910Z,1.10
2023-02-19T09:28:27.985Z,0.80
2023-02-19T09:30:55.345Z,0.80
2023-02-19T09:33:22.195Z,0.93
2023-02-19T09:35:48.982Z,1.02
2023-02-19T09:38:15.833Z,0.90
2023-02-19T09:40:42.718Z,1.20
2023-02-19T09:43:17.983Z,1.00
2023-02-19T09:45:44.772Z,0.80
2023-02-19T09:48:12.633Z,1.13
2023-02-19T09:50:48.919Z,0.80
2023-02-19T09:53:21.252Z,0.73
2023-02-19T09:55:48.473Z,0.90
2023-02-19T09:58:25.599Z,1.05
2023-02-19T10:00:54.819Z,1.27
2023-02-19T10:03:34.125Z,0.93
2023-02-19T10:06:16.932Z,0.75
2023-02-19T10:08:48.526Z,0.70
2023-02-19T10:11:16.097Z,0.77
2023-02-19T10:13:55.994Z,1.10
2023-02-19T10:18:52.945Z,0.80
2023-02-19T10:21:24.900Z,0.80
2023-02-19T10:23:56.620Z,1.00
2023-02-19T10:26:24.257Z,1.00
2023-02-19T10:28:51.180Z,0.90
2023-02-19T10:31:22.168Z,0.82
2023-02-19T10:33:58.459Z,0.82
2023-02-19T10:36:41.216Z,1.00
2023-02-19T10:39:47.971Z,0.80
2023-02-19T10:42:19.056Z,1.02
2023-02-19T10:44:52.391Z,0.90
2023-02-19T10:47:23.747Z,1.20
2023-02-19T10:49:52.584Z,1.00
2023-02-19T10:52:34.196Z,1.10
2023-02-19T10:55:19.317Z,0.70
2023-02-19T10:57:46.796Z,0.93
2023-02-19T11:00:16.328Z,0.93
2023-02-19T11:02:44.852Z,1.08
2023-02-19T11:05:15.038Z,0.90
2023-02-19T11:07:56.788Z,0.90
2023-02-19T11:10:33.310Z,1.13
2023-02-19T11:13:06.846Z,0.82
2023-02-19T11:15:36.111Z,1.02
2023-02-19T11:18:11.718Z,0.90
2023-02-19T11:21:03.099Z,0.73
2023-02-19T11:23:37.706Z,0.88
2023-02-19T11:26:16.760Z,0.80
2023-02-19T11:28:44.138Z,1.10
2023-02-19T11:31:20.092Z,0.70
2023-02-19T11:33:56.738Z,1.02
2023-02-19T11:36:25.437Z,0.70
2023-02-19T11:38:52.571Z,0.82
2023-02-19T11:41:49.258Z,1.00
2023-02-19T11:44:35.797Z,0.77
2023-02-19T11:47:43.064Z,0.80
2023-02-19T11:51:13.428Z,0.93
2023-02-19T11:53:49.879Z,0.70
2023-02-19T11:56:34.868Z,0.80
2023-02-19T11:59:07.602Z,0.90
2023-02-19T12:02:03.702Z,0.80
2023-02-19T12:04:55.061Z,0.50
2023-02-19T12:07:57.245Z,0.98
2023-02-19T12:10:56.618Z,0.80
2023-02-19T12:13:29.148Z,0.80
2023-02-19T12:16:19.551Z,1.10
2023-02-19T12:19:23.827Z,1.00
2023-02-19T12:22:04.370Z,0.90
2023-02-19T12:24:59.951Z,0.90
2023-02-19T12:28:13.532Z,0.80
2023-02-19T12:30:53.263Z,0.98
2023-02-19T12:34:02.798Z,0.70
2023-02-19T12:40:09.271Z,0.80
2023-02-19T12:43:01.949Z,0.77
2023-02-19T12:46:15.493Z,0.73
2023-02-19T12:48:48.666Z,0.73
2023-02-19T12:51:25.861Z,1.05
2023-02-19T12:54:17.070Z,0.90
2023-02-19T12:57:04.403Z,0.68
2023-02-19T12:59:59.985Z,0.80
2023-02-19T13:02:45.318Z,0.80
2023-02-19T13:05:26.257Z,0.98
2023-02-19T13:08:34.119Z,1.00
2023-02-19T13:11:22.280Z,1.00
2023-02-19T13:14:15.989Z,0.90
2023-02-19T13:16:48.461Z,1.20
2023-02-19T13:19:15.337Z,0.98
2023-02-19T13:22:03.006Z,0.90
2023-02-19T13:24:37.687Z,1.00
2023-02-19T13:27:28.251Z,0.90
2023-02-19T13:30:48.345Z,1.13
2023-02-19T13:33:37.282Z,0.77
2023-02-19T13:36:15.345Z,1.00
2023-02-19T13:38:48.454Z,0.98
2023-02-19T13:41:26.391Z,1.10
2023-02-19T13:44:12.527Z,0.90
2023-02-19T13:46:45.514Z,0.93
2023-02-19T13:49:27.776Z,1.00
2023-02-19T13:52:00.237Z,1.00
2023-02-19T13:54:39.878Z,1.00
2023-02-19T13:57:24.334Z,0.85
2023-02-19T13:59:55.694Z,1.00
2023-02-19T14:02:32.426Z,0.90
2023-02-19T14:05:11.487Z,1.00
2023-02-19T14:07:50.321Z,1.00
2023-02-19T14:10:45.894Z,0.90
2023-02-19T14:13:50.796Z,0.90
2023-02-19T14:16:37.709Z,1.00
2023-02-19T14:19:14.273Z,0.77
2023-02-19T14:21:43.667Z,1.25
2023-02-19T14:24:15.022Z,1.02
2023-02-19T14:26:42.359Z,1.25
2023-02-19T14:29:12.551Z,1.17
2023-02-19T14:31:40.383Z,1.08
2023-02-19T14:34:24.771Z,0.85
2023-02-19T14:37:01.068Z,0.70
2023-02-19T14:39:33.024Z,1.13
2023-02-19T14:42:04.619Z,1.20
2023-02-19T14:44:46.430Z,1.10
2023-02-19T14:47:23.375Z,1.30
2023-02-19T14:50:00.903Z,1.10
2023-02-19T14:52:40.803Z,1.10
2023-02-19T14:57:41.839Z,1.10
2023-02-19T15:00:35.000Z,1.20
2023-02-19T15:03:02.594Z,1.20
2023-02-19T15:05:38.802Z,1.05
2023-02-19T15:08:15.450Z,1.52
2023-02-19T15:10:43.542Z,1.20
2023-02-19T15:13:17.273Z,1.38
2023-02-19T15:15:46.238Z,1.30
2023-02-19T15:18:23.995Z,1.67
2023-02-19T15:20:59.756Z,1.00
2023-02-19T15:23:30.301Z,0.90
2023-02-19T15:25:58.652Z,1.30
2023-02-19T15:28:25.331Z,1.13
2023-02-19T15:31:07.583Z,1.20
2023-02-19T15:33:35.268Z,1.08
2023-02-19T15:36:06.967Z,0.90
2023-02-19T15:38:34.544Z,1.08
2023-02-19T15:41:01.794Z,1.10
2023-02-19T15:43:39.278Z,1.35
2023-02-19T15:46:21.364Z,1.10
2023-02-19T15:49:16.855Z,1.27
2023-02-19T15:51:54.498Z,0.98
2023-02-19T15:54:36.154Z,1.02
2023-02-19T15:57:16.607Z,1.10
2023-02-19T15:59:54.741Z,0.85
2023-02-19T16:02:21.836Z,1.55
2023-02-19T16:04:48.645Z,1.30
2023-02-19T16:07:29.174Z,1.13
2023-02-19T16:10:17.671Z,0.90
2023-02-19T16:12:44.547Z,1.48
2023-02-19T16:15:15.023Z,1.20
2023-02-19T16:17:45.740Z,1.05
2023-02-19T16:20:32.579Z,1.73
2023-02-19T16:23:09.138Z,1.73
2023-02-19T16:25:46.197Z,1.27
2023-02-19T16:28:23.941Z,1.20
2023-02-19T16:31:06.690Z,1.20
2023-02-19T16:33:48.840Z,1.33
2023-02-19T16:36:33.284Z,1.23
2023-02-19T16:39:12.869Z,1.40
2023-02-19T16:41:39.502Z,1.75
2023-02-19T16:44:21.623Z,1.60
2023-02-19T16:46:54.145Z,1.80
2023-02-19T16:49:22.547Z,1.80
2023-02-19T16:51:49.856Z,2.20
2023-02-19T16:54:17.021Z,1.75
2023-02-19T16:56:43.786Z,1.80
2023-02-19T16:59:10.586Z,1.60
2023-02-19T17:01:38.191Z,3.10
2023-02-19T17:04:09.759Z,1.95
2023-02-19T17:06:39.700Z,1.95
2023-02-19T17:11:36.066Z,1.45
2023-02-19T17:14:03.080Z,1.40
2023-02-19T17:16:39.397Z,1.10
2023-02-19T17:19:14.002Z,1.20
2023-02-19T17:21:40.809Z,1.35
2023-02-19T17:24:07.875Z,1.40
2023-02-19T17:26:34.718Z,1.40
2023-02-19T17:29:05.549Z,1.20
2023-02-19T17:31:33.850Z,1.40
2023-02-19T17:34:01.158Z,1.27
2023-02-19T17:36:30.986Z,1.42
2023-02-19T17:38:59.172Z,1.40
2023-02-19T17:41:26.876Z,1.30
2023-02-19T17:43:53.720Z,1.67
2023-02-19T17:46:25.470Z,1.38
2023-02-19T17:48:53.080Z,1.40
2023-02-19T17:51:20.500Z,1.70
2023-02-19T17:53:47.370Z,1.48
2023-02-19T17:56:20.937Z,1.23
2023-02-19T17:58:48.043Z,1.92
2023-02-19T18:01:15.800Z,1.67
2023-02-19T18:03:42.998Z,1.48
2023-02-19T18:06:09.899Z,1.50
2023-02-19T18:08:37.537Z,1.45
2023-02-19T18:11:06.586Z,1.45
2023-02-19T18:13:33.374Z,1.50
2023-02-19T18:16:00.147Z,1.58
2023-02-19T18:18:26.932Z,1.55
2023-02-19T18:20:53.708Z,1.40
2023-02-19T18:23:20.618Z,1.60
2023-02-19T18:25:47.464Z,1.60
2023-02-19T18:28:14.973Z,2.70
2023-02-19T18:30:41.877Z,2.95
2023-02-19T18:33:10.788Z,1.80
2023-02-19T18:35:38.397Z,1.73
2023-02-19T18:38:06.074Z,1.70
2023-02-19T18:40:32.873Z,1.95
2023-02-19T18:42:59.808Z,1.42
2023-02-19T18:45:29.484Z,1.98
2023-02-19T18:47:56.261Z,2.00
2023-02-19T18:50:23.078Z,1.90
2023-02-19T18:52:49.916Z,1.58
2023-02-19T18:55:16.817Z,1.70
2023-02-19T18:57:44.161Z,1.60
2023-02-19T19:00:25.488Z,1.40
2023-02-19T19:02:59.470Z,1.92
2023-02-19T19:05:27.087Z,1.63
2023-02-19T19:07:57.498Z,1.40
2023-02-19T19:10:24.663Z,1.40
2023-02-19T19:12:51.918Z,1.52
2023-02-19T19:15:19.026Z,1.35
2023-02-19T19:17:47.644Z,1.83
2023-02-19T19:20:20.316Z,1.42
2023-02-19T19:22:53.226Z,1.77
2023-02-19T19:25:21.550Z,1.90
2023-02-19T19:27:50.563Z,2.28
2023-02-19T19:30:19.818Z,2.10
2023-02-19T19:32:52.067Z,1.95
2023-02-19T19:35:20.307Z,1.50
2023-02-19T19:37:47.467Z,1.42
2023-02-19T19:40:17.120Z,1.70
2023-02-19T19:42:44.646Z,2.10
2023-02-19T19:45:11.944Z,1.70
2023-02-19T19:47:38.805Z,1.77
2023-02-19T19:50:06.190Z,1.65
2023-02-19T19:52:33.056Z,1.65
2023-02-19T19:54:59.827Z,1.50
2023-02-19T19:57:26.610Z,1.33
2023-02-19T19:59:53.492Z,1.58
2023-02-19T20:02:20.483Z,1.70
2023-02-19T20:04:47.371Z,1.90
2023-02-19T20:07:14.197Z,1.83
2023-02-19T20:09:41.274Z,1.42
2023-02-19T20:12:08.527Z,1.67
2023-02-19T20:14:35.344Z,2.00
2023-02-19T20:17:02.143Z,1.60
2023-02-19T20:19:28.957Z,1.67
2023-02-19T20:21:55.877Z,1.55
2023-02-19T20:24:28.348Z,1.60
2023-02-19T20:26:59.170Z,1.70
2023-02-19T20:29:30.592Z,1.92
2023-02-19T20:31:59.750Z,1.83
2023-02-19T20:34:27.244Z,2.10
2023-02-19T20:36:54.167Z,1.80
2023-02-19T20:39:21.776Z,1.92
2023-02-19T20:41:51.968Z,1.80
2023-02-19T20:44:19.308Z,1.92
2023-02-19T20:46:50.036Z,1.80
2023-02-19T20:49:22.678Z,1.73
2023-02-19T20:51:54.928Z,1.45
2023-02-19T20:54:25.390Z,2.35
2023-02-19T20:56:55.004Z,1.50
2023-02-19T20:59:25.235Z,2.17
2023-02-19T21:01:52.197Z,1.60
2023-02-19T21:04:19.662Z,2.08
2023-02-19T21:06:46.460Z,2.10
2023-02-19T21:09:13.740Z,1.60
2023-02-19T21:11:49.550Z,2.53
2023-02-19T21:14:17.128Z,1.85
2023-02-19T21:16:43.975Z,1.67
2023-02-19T21:19:10.903Z,1.80
2023-02-19T21:21:40.104Z,1.80
2023-02-19T21:24:07.419Z,2.00
2023-02-19T21:26:37.359Z,1.60
2023-02-19T21:31:38.467Z,1.55
2023-02-19T21:34:07.988Z,1.83
2023-02-19T21:36:35.267Z,1.92
2023-02-19T21:39:03.482Z,1.50
2023-02-19T21:41:30.310Z,1.92
2023-02-19T21:43:57.618Z,2.00
2023-02-19T21:46:25.369Z,1.80
2023-02-19T21:48:54.633Z,2.10
2023-02-19T21:51:34.733Z,2.00
2023-02-19T21:54:03.002Z,1.67
2023-02-19T21:56:33.961Z,1.85
2023-02-19T21:59:02.872Z,1.90
2023-02-19T22:01:33.616Z,2.35
2023-02-19T22:04:01.044Z,1.73
2023-02-19T22:06:29.926Z,2.08
2023-02-19T22:08:57.825Z,2.08
2023-02-19T22:11:25.032Z,2.13
2023-02-19T22:13:51.838Z,2.97
2023-02-19T22:16:19.254Z,1.98
2023-02-19T22:18:55.909Z,1.98
2023-02-19T22:21:25.215Z,2.03
2023-02-19T22:23:53.683Z,1.63
2023-02-19T22:26:29.803Z,2.05
2023-02-19T22:28:59.121Z,1.73
2023-02-19T22:31:27.405Z,2.05
2023-02-19T22:33:55.763Z,2.00
2023-02-19T22:36:26.162Z,2.05
2023-02-19T22:38:53.721Z,2.20
2023-02-19T22:41:21.314Z,2.30
2023-02-19T22:43:49.330Z,2.35
2023-02-19T22:46:26.396Z,2.40
2023-02-19T22:48:53.166Z,2.22
2023-02-19T22:51:22.523Z,1.98
2023-02-19T22:53:58.265Z,2.05
2023-02-19T22:56:28.531Z,2.53
2023-02-19T22:58:56.999Z,2.20
2023-02-19T23:01:24.147Z,2.30
2023-02-19T23:03:57.069Z,2.90
2023-02-19T23:06:30.419Z,2.20
2023-02-19T23:09:01.777Z,2.92
2023-02-19T23:11:33.137Z,2.13
2023-02-19T23:14:00.159Z,2.13
2023-02-19T23:16:28.466Z,1.90
2023-02-19T23:18:55.694Z,2.50
2023-02-19T23:21:23.377Z,2.13
2023-02-19T23:23:50.545Z,2.08
2023-02-19T23:26:17.490Z,2.05
2023-02-19T23:28:45.858Z,2.35
2023-02-19T23:31:13.756Z,2.33
2023-02-19T23:33:41.169Z,1.85
2023-02-19T23:36:09.244Z,2.10
2023-02-19T23:38:36.300Z,2.30
2023-02-19T23:41:03.333Z,2.38
2023-02-19T23:43:30.203Z,2.10
2023-02-19T23:45:57.011Z,2.25
2023-02-19T23:48:23.797Z,1.80
2023-02-19T23:50:50.604Z,2.10
2023-02-19T23:53:17.390Z,2.10
2023-02-19T23:55:44.219Z,2.17
2023-02-19T23:58:11.007Z,1.98
